Portada
METAR-TAF:

METAR-TAF

Aeropuertos :

Aeropuerto de Abakán

Abakán, Rusia

latitud: 53-45N, longitud: 091-24E, altitud: 245 m

Observación

El informe se hizo hace 33 minutos, a las 22:30 UTC
Viento 2 kt del norte-noroeste
Temperatura 16°C
Humedad 82%
Presión 1007 hPa
Visibilidad 10 km o más
sin nubes por debajo de 1500 m y sin presencia de cumulonimbus.

METAR: UNAA 212230Z 34001MPS CAVOK 16/13 Q1007 R02/CLRD65 NOSIG RMK QFE733

Hora: 06:03 (23:03 UTC)

Pronóstico

El informe se hizo hace 3 horas y 8 minutos, a las 19:55 UTC
Pronóstico válido del 21 a las 21 UTC al 22 a las 21 UTC
Viento 6 kt del este-sureste
Visibilidad 10 km o más
Nubes dispersas a una altura de 4000 ft, Cumulonimbus.

TAF: UNAA 211955Z 2121/2221 12003MPS 9999 SCT040CB

Observaciones y pronósticos meteorológicos de más de 4000 aeropuertos (mensajes METAR y TAF).

Los puntos amarillos y rojos representan las estaciones disponibles.

Ponga el ratón en el punto deseado para ver el nombre de la estación.

Haga clic para ver las observaciones y los pronósticos meteorológicos.

Para cambiar el mapa : haga clic en los botones verdes con una cruz de color negro para hacer un zoom, en el botón verde con un guión para alejar o en las flechas verdes para mapas adyacentes.


METAR-TAF: